createdAt,value
2019-01-29T00:01:41.570Z,3.40
2019-01-29T00:06:34.352Z,3.40
2019-01-29T00:11:27.260Z,3.40
2019-01-29T00:16:20.050Z,3.50
2019-01-29T00:21:12.888Z,3.50
2019-01-29T00:26:05.760Z,3.40
2019-01-29T00:30:58.803Z,3.30
2019-01-29T00:35:51.678Z,3.30
2019-01-29T00:40:44.494Z,3.50
2019-01-29T00:45:37.332Z,3.50
2019-01-29T00:50:30.140Z,3.40
2019-01-29T00:55:23.220Z,3.40
2019-01-29T01:00:19.195Z,3.40
2019-01-29T01:05:12.581Z,3.40
2019-01-29T01:10:10.132Z,3.30
2019-01-29T01:15:04.088Z,3.30
2019-01-29T01:19:56.932Z,3.20
2019-01-29T01:24:49.789Z,3.20
2019-01-29T01:29:42.619Z,3.30
2019-01-29T01:34:35.564Z,3.30
2019-01-29T01:39:28.437Z,3.20
2019-01-29T01:44:21.268Z,3.00
2019-01-29T01:49:14.126Z,3.20
2019-01-29T01:54:06.959Z,3.10
2019-01-29T01:58:59.829Z,3.10
2019-01-29T02:03:52.671Z,3.20
2019-01-29T02:08:45.526Z,3.20
2019-01-29T02:13:38.353Z,3.20
2019-01-29T02:18:31.168Z,3.30
2019-01-29T02:23:24.056Z,3.10
2019-01-29T02:28:16.916Z,3.10
2019-01-29T02:33:09.691Z,3.10
2019-01-29T02:38:02.671Z,3.10
2019-01-29T02:42:55.495Z,3.10
2019-01-29T02:47:48.547Z,3.20
2019-01-29T02:52:41.387Z,3.20
2019-01-29T02:57:34.245Z,3.20
2019-01-29T03:02:27.060Z,3.30
2019-01-29T03:07:19.863Z,3.30
2019-01-29T03:12:12.737Z,3.30
2019-01-29T03:17:05.593Z,3.50
2019-01-29T03:21:58.440Z,3.50
2019-01-29T03:26:51.261Z,3.60
2019-01-29T03:31:44.117Z,3.60
2019-01-29T03:36:36.952Z,3.50
2019-01-29T03:41:30.840Z,3.40
2019-01-29T03:46:23.672Z,3.40
2019-01-29T03:51:16.492Z,3.10
2019-01-29T03:56:09.342Z,3.10
2019-01-29T04:01:02.209Z,3.00
2019-01-29T04:05:55.030Z,3.00
2019-01-29T04:10:47.910Z,3.40
2019-01-29T04:15:40.717Z,3.30
2019-01-29T04:20:33.607Z,3.30
2019-01-29T04:25:26.416Z,3.10
2019-01-29T04:30:21.257Z,3.00
2019-01-29T04:35:14.198Z,2.80
2019-01-29T04:40:09.877Z,2.70
2019-01-29T04:45:03.974Z,2.90
2019-01-29T04:49:56.857Z,2.90
2019-01-29T04:54:49.655Z,3.10
2019-01-29T04:59:42.481Z,3.20
2019-01-29T05:04:35.397Z,3.40
2019-01-29T05:09:28.237Z,3.30
2019-01-29T05:14:21.038Z,3.30
2019-01-29T05:19:13.905Z,3.40
2019-01-29T05:24:07.328Z,3.30
2019-01-29T05:29:00.415Z,3.30
2019-01-29T05:33:53.280Z,3.20
2019-01-29T05:38:46.113Z,3.20
2019-01-29T05:43:38.989Z,3.30
2019-01-29T05:48:31.871Z,3.30
2019-01-29T05:53:24.726Z,3.50
2019-01-29T05:58:17.572Z,3.40
2019-01-29T06:03:10.405Z,3.60
2019-01-29T06:08:05.157Z,3.50
2019-01-29T06:12:58.003Z,3.30
2019-01-29T06:17:51.054Z,3.20
2019-01-29T06:22:43.879Z,3.00
2019-01-29T06:27:36.705Z,3.00
2019-01-29T06:32:29.632Z,3.00
2019-01-29T06:37:22.579Z,3.00
2019-01-29T06:42:15.399Z,3.10
2019-01-29T06:47:08.241Z,3.00
2019-01-29T06:52:01.104Z,3.00
2019-01-29T06:56:53.906Z,2.80
2019-01-29T07:01:46.758Z,2.70
2019-01-29T07:06:39.581Z,2.60
2019-01-29T07:11:32.470Z,2.40
2019-01-29T07:16:50.738Z,2.40
2019-01-29T07:21:43.568Z,2.60
2019-01-29T07:26:36.416Z,2.60
2019-01-29T07:31:29.242Z,2.70
2019-01-29T07:36:22.108Z,2.60
2019-01-29T07:41:14.931Z,2.60
2019-01-29T07:46:09.072Z,2.60
2019-01-29T07:51:01.923Z,2.70
2019-01-29T07:55:59.039Z,2.70
2019-01-29T08:00:51.871Z,2.80
2019-01-29T08:05:45.446Z,2.90
2019-01-29T08:10:38.561Z,2.90
2019-01-29T08:15:31.425Z,3.00
2019-01-29T08:20:24.359Z,3.20
2019-01-29T08:25:17.181Z,3.20
2019-01-29T08:30:10.510Z,3.40
2019-01-29T08:35:04.362Z,3.40
2019-01-29T08:39:57.228Z,3.40
2019-01-29T08:44:50.106Z,3.50
2019-01-29T08:49:43.364Z,3.70
2019-01-29T08:54:36.469Z,4.00
2019-01-29T08:59:29.407Z,4.20
2019-01-29T09:04:22.685Z,4.20
2019-01-29T09:09:15.558Z,4.30
2019-01-29T09:14:08.727Z,4.20
2019-01-29T09:19:01.926Z,4.00
2019-01-29T09:23:55.393Z,4.00
2019-01-29T09:28:48.592Z,4.20
2019-01-29T09:33:41.564Z,4.20
2019-01-29T09:38:34.755Z,4.20
2019-01-29T09:43:27.669Z,4.30
2019-01-29T09:48:20.561Z,4.60
2019-01-29T09:53:13.574Z,5.80
2019-01-29T09:58:06.469Z,5.90
2019-01-29T10:02:59.320Z,6.50
2019-01-29T10:07:52.315Z,6.50
2019-01-29T10:12:45.172Z,6.30
2019-01-29T10:17:38.515Z,6.30
2019-01-29T10:22:31.473Z,6.20
2019-01-29T10:27:24.724Z,6.20
2019-01-29T10:32:17.664Z,6.00
2019-01-29T10:37:10.597Z,5.70
2019-01-29T10:42:05.958Z,6.10
2019-01-29T10:46:59.132Z,5.60
2019-01-29T10:51:52.068Z,5.30
2019-01-29T10:56:44.918Z,5.10
2019-01-29T11:01:37.865Z,5.30
2019-01-29T11:06:30.765Z,5.70
2019-01-29T11:11:23.622Z,5.70
2019-01-29T11:16:16.583Z,5.60
2019-01-29T11:21:09.419Z,5.50
2019-01-29T11:26:02.373Z,5.70
2019-01-29T11:30:55.221Z,6.00
2019-01-29T11:35:48.145Z,5.70
2019-01-29T11:40:41.543Z,6.00
2019-01-29T11:45:44.544Z,5.90
2019-01-29T11:50:37.533Z,5.70
2019-01-29T11:55:30.405Z,6.10
2019-01-29T12:00:32.876Z,5.90
2019-01-29T12:05:25.855Z,5.70
2019-01-29T12:10:19.144Z,5.80
2019-01-29T12:15:14.292Z,6.10
2019-01-29T12:20:09.929Z,5.90
2019-01-29T12:25:03.330Z,5.90
2019-01-29T12:29:56.195Z,5.70
2019-01-29T12:34:49.120Z,5.80
2019-01-29T12:39:42.081Z,5.80
2019-01-29T12:44:34.889Z,6.30
2019-01-29T12:49:27.913Z,5.90
2019-01-29T12:54:20.764Z,5.90
2019-01-29T12:59:13.603Z,5.80
2019-01-29T13:04:06.506Z,5.80
2019-01-29T13:08:59.381Z,5.80
2019-01-29T13:13:52.304Z,6.10
2019-01-29T13:18:45.190Z,6.00
2019-01-29T13:23:38.077Z,6.10
2019-01-29T13:28:31.189Z,5.90
2019-01-29T13:33:24.203Z,5.60
2019-01-29T13:38:17.240Z,5.80
2019-01-29T13:43:10.180Z,5.70
2019-01-29T13:48:03.799Z,5.50
2019-01-29T13:52:56.771Z,5.40
2019-01-29T13:57:49.648Z,5.40
2019-01-29T14:02:42.809Z,5.40
2019-01-29T14:07:35.740Z,5.30
2019-01-29T14:12:28.775Z,5.30
2019-01-29T14:17:21.801Z,5.20
2019-01-29T14:22:14.767Z,4.60
2019-01-29T14:27:07.777Z,4.60
2019-01-29T14:32:00.754Z,4.50
2019-01-29T14:36:53.578Z,4.20
2019-01-29T14:41:46.681Z,4.20
2019-01-29T14:46:39.664Z,4.30
2019-01-29T14:51:32.742Z,4.20
2019-01-29T14:56:25.815Z,4.20
2019-01-29T15:01:19.301Z,4.20
2019-01-29T15:06:12.628Z,4.20
2019-01-29T15:11:05.597Z,3.90
2019-01-29T15:16:06.854Z,3.90
2019-01-29T15:20:59.708Z,3.70
2019-01-29T15:25:52.734Z,3.60
2019-01-29T15:30:45.730Z,3.40
2019-01-29T15:35:38.661Z,3.20
2019-01-29T15:45:25.007Z,3.10
2019-01-29T15:50:20.377Z,2.90
2019-01-29T15:55:14.479Z,2.90
2019-01-29T16:00:22.942Z,2.90
2019-01-29T16:05:20.211Z,2.80
2019-01-29T16:10:17.031Z,2.70
2019-01-29T16:15:12.637Z,2.60
2019-01-29T16:20:07.043Z,2.50
2019-01-29T16:24:59.949Z,2.50
2019-01-29T16:29:57.812Z,2.40
2019-01-29T16:34:50.633Z,2.30
2019-01-29T16:39:43.718Z,2.30
2019-01-29T16:44:36.662Z,2.20
2019-01-29T16:49:29.497Z,2.20
2019-01-29T16:54:22.546Z,2.10
2019-01-29T16:59:15.362Z,2.10
2019-01-29T17:04:08.185Z,2.00
2019-01-29T17:09:01.240Z,2.00
2019-01-29T17:13:54.078Z,2.00
2019-01-29T17:18:46.951Z,1.90
2019-01-29T17:23:39.880Z,2.00
2019-01-29T17:28:32.751Z,2.00
2019-01-29T17:33:25.870Z,2.00
2019-01-29T17:38:18.831Z,2.00
2019-01-29T17:43:11.741Z,2.00
2019-01-29T17:48:05.463Z,1.90
2019-01-29T17:52:58.425Z,1.80
2019-01-29T17:57:51.315Z,1.80
2019-01-29T18:02:44.153Z,1.80
2019-01-29T18:07:37.069Z,1.80
2019-01-29T18:12:29.928Z,2.00
2019-01-29T18:17:22.931Z,1.90
2019-01-29T18:22:15.818Z,1.90
2019-01-29T18:27:08.731Z,1.90
2019-01-29T18:32:01.606Z,2.00
2019-01-29T18:36:54.517Z,1.90
2019-01-29T18:41:47.433Z,1.90
2019-01-29T18:46:40.396Z,1.90
2019-01-29T18:51:33.332Z,1.90
2019-01-29T18:56:26.330Z,1.90
2019-01-29T19:01:19.273Z,1.90
2019-01-29T19:06:13.772Z,2.00
2019-01-29T19:11:07.894Z,1.90
2019-01-29T19:16:00.845Z,1.90
2019-01-29T19:20:53.812Z,1.90
2019-01-29T19:25:46.859Z,1.90
2019-01-29T19:30:39.723Z,1.80
2019-01-29T19:35:32.660Z,1.80
2019-01-29T19:40:25.500Z,1.80
2019-01-29T19:45:24.840Z,1.80
2019-01-29T19:50:20.775Z,1.80
2019-01-29T19:55:13.648Z,1.80
2019-01-29T20:00:13.777Z,1.80
2019-01-29T20:05:07.823Z,1.80
2019-01-29T20:10:00.799Z,1.80
2019-01-29T20:14:53.722Z,1.90
2019-01-29T20:19:46.687Z,1.80
2019-01-29T20:24:39.576Z,1.80
2019-01-29T20:29:32.442Z,1.80
2019-01-29T20:34:25.296Z,1.80
2019-01-29T20:39:18.230Z,1.80
2019-01-29T20:44:11.112Z,1.80
2019-01-29T20:49:03.975Z,1.80
2019-01-29T20:53:56.988Z,1.80
2019-01-29T20:58:52.636Z,1.80
2019-01-29T21:03:44.694Z,1.80
2019-01-29T21:08:37.620Z,1.80
2019-01-29T21:13:30.461Z,1.70
2019-01-29T21:18:23.457Z,1.70
2019-01-29T21:23:16.370Z,1.70
2019-01-29T21:28:09.233Z,1.70
2019-01-29T21:33:02.086Z,1.70
2019-01-29T21:37:54.937Z,1.70
2019-01-29T21:42:47.885Z,1.80
2019-01-29T21:47:40.690Z,1.80
2019-01-29T21:52:33.520Z,1.70
2019-01-29T21:57:26.345Z,1.70
2019-01-29T22:02:19.198Z,1.70
2019-01-29T22:07:12.031Z,1.70
2019-01-29T22:12:04.882Z,1.70
2019-01-29T22:16:57.676Z,1.70
2019-01-29T22:21:50.550Z,1.70
2019-01-29T22:26:43.389Z,1.60
2019-01-29T22:31:36.233Z,1.60
2019-01-29T22:36:29.387Z,1.60
2019-01-29T22:41:22.242Z,1.50
2019-01-29T22:46:15.103Z,1.50
2019-01-29T22:51:07.928Z,1.50
2019-01-29T22:56:01.017Z,1.50
2019-01-29T23:01:37.990Z,1.50
2019-01-29T23:06:56.415Z,1.50
2019-01-29T23:11:51.075Z,1.40
2019-01-29T23:16:44.695Z,1.40
2019-01-29T23:21:38.317Z,1.40
2019-01-29T23:26:31.765Z,1.40
2019-01-29T23:31:25.271Z,1.40
2019-01-29T23:36:18.361Z,1.40
2019-01-29T23:41:12.594Z,1.40
2019-01-29T23:46:09.451Z,1.30
2019-01-29T23:51:02.322Z,1.30
2019-01-29T23:55:55.955Z,1.30
